createdAt,value
2022-12-15T00:00:36.990Z,12.03
2022-12-15T00:03:23.167Z,13.30
2022-12-15T00:06:03.091Z,11.93
2022-12-15T00:08:42.904Z,12.17
2022-12-15T00:11:23.212Z,10.93
2022-12-15T00:14:03.116Z,11.23
2022-12-15T00:16:43.200Z,13.60
2022-12-15T00:19:24.022Z,12.83
2022-12-15T00:22:04.150Z,10.97
2022-12-15T00:24:44.043Z,11.50
2022-12-15T00:27:24.570Z,11.47
2022-12-15T00:30:05.106Z,14.33
2022-12-15T00:32:44.934Z,17.67
2022-12-15T00:35:25.455Z,18.20
2022-12-15T00:38:05.422Z,15.03
2022-12-15T00:40:26.875Z,13.80
2022-12-15T00:42:49.607Z,11.57
2022-12-15T00:45:11.322Z,12.30
2022-12-15T00:47:33.527Z,10.70
2022-12-15T00:50:13.644Z,10.90
2022-12-15T00:52:54.266Z,10.77
2022-12-15T00:55:34.336Z,11.33
2022-12-15T00:58:14.226Z,10.40
2022-12-15T01:00:54.434Z,10.63
2022-12-15T01:03:39.895Z,10.40
2022-12-15T01:06:24.449Z,9.80
2022-12-15T01:09:04.174Z,10.50
2022-12-15T01:11:44.419Z,10.30
2022-12-15T01:14:24.369Z,10.70
2022-12-15T01:17:04.183Z,10.00
2022-12-15T01:19:43.876Z,10.30
2022-12-15T01:22:07.018Z,9.70
2022-12-15T01:24:28.507Z,10.70
2022-12-15T01:26:50.063Z,10.73
2022-12-15T01:29:11.511Z,9.77
2022-12-15T01:31:33.039Z,10.60
2022-12-15T01:33:55.408Z,9.60
2022-12-15T01:36:16.880Z,10.37
2022-12-15T01:38:38.653Z,10.17
2022-12-15T01:41:06.677Z,11.20
2022-12-15T01:43:32.472Z,10.40
2022-12-15T01:46:01.980Z,10.57
2022-12-15T01:48:28.383Z,10.70
2022-12-15T01:51:04.480Z,11.37
2022-12-15T01:53:27.375Z,11.53
2022-12-15T01:55:49.707Z,10.30
2022-12-15T01:58:13.535Z,10.63
2022-12-15T02:00:35.169Z,10.83
2022-12-15T02:02:59.059Z,11.10
2022-12-15T02:05:21.511Z,12.67
2022-12-15T02:07:42.952Z,10.27
2022-12-15T02:10:07.400Z,10.20
2022-12-15T02:12:35.896Z,10.20
2022-12-15T02:15:25.391Z,10.33
2022-12-15T02:17:49.763Z,10.00
2022-12-15T02:20:44.816Z,9.90
2022-12-15T02:23:15.213Z,9.87
2022-12-15T02:26:09.738Z,9.13
2022-12-15T02:28:49.316Z,9.80
2022-12-15T02:31:39.415Z,9.67
2022-12-15T02:34:11.163Z,9.93
2022-12-15T02:36:37.283Z,9.30
2022-12-15T02:38:58.782Z,9.30
2022-12-15T02:41:39.667Z,10.13
2022-12-15T02:44:05.575Z,9.20
2022-12-15T02:46:41.314Z,10.03
2022-12-15T02:49:36.957Z,9.50
2022-12-15T02:52:30.862Z,9.27
2022-12-15T02:54:58.457Z,9.50
2022-12-15T02:58:00.033Z,10.90
2022-12-15T03:00:22.739Z,11.83
2022-12-15T03:02:53.182Z,11.70
2022-12-15T03:05:16.489Z,11.73
2022-12-15T03:07:37.995Z,11.07
2022-12-15T03:10:02.318Z,10.73
2022-12-15T03:12:23.871Z,9.43
2022-12-15T03:14:45.344Z,10.37
2022-12-15T03:17:07.575Z,9.60
2022-12-15T03:19:28.993Z,10.53
2022-12-15T03:21:50.442Z,10.13
2022-12-15T03:24:12.021Z,10.57
2022-12-15T03:26:33.592Z,10.00
2022-12-15T03:28:55.036Z,10.50
2022-12-15T03:31:16.519Z,10.73
2022-12-15T03:33:38.013Z,10.13
2022-12-15T03:36:00.091Z,10.17
2022-12-15T03:38:21.604Z,10.03
2022-12-15T03:40:43.076Z,10.67
2022-12-15T03:43:04.534Z,9.90
2022-12-15T03:45:28.091Z,9.30
2022-12-15T03:47:50.480Z,9.73
2022-12-15T03:50:13.807Z,10.10
2022-12-15T03:52:36.126Z,9.60
2022-12-15T03:54:57.536Z,9.10
2022-12-15T03:57:18.983Z,9.07
2022-12-15T03:59:40.436Z,8.60
2022-12-15T04:02:01.955Z,10.03
2022-12-15T04:04:23.586Z,9.07
2022-12-15T04:06:45.107Z,9.47
2022-12-15T04:09:06.534Z,8.73
2022-12-15T04:11:28.010Z,8.73
2022-12-15T04:13:49.461Z,9.37
2022-12-15T04:16:14.798Z,10.10
2022-12-15T04:18:39.402Z,10.37
2022-12-15T04:21:00.859Z,11.23
2022-12-15T04:23:22.949Z,13.83
2022-12-15T04:26:03.129Z,15.13
2022-12-15T04:28:42.831Z,13.60
2022-12-15T04:31:38.494Z,10.77
2022-12-15T04:34:22.441Z,11.40
2022-12-15T04:37:05.527Z,9.73
2022-12-15T04:39:46.452Z,9.77
2022-12-15T04:42:26.572Z,9.20
2022-12-15T04:45:12.206Z,10.97
2022-12-15T04:47:54.621Z,10.47
2022-12-15T04:50:34.728Z,11.20
2022-12-15T04:53:14.528Z,13.57
2022-12-15T04:55:55.153Z,14.40
2022-12-15T04:58:35.194Z,11.03
2022-12-15T05:01:18.391Z,10.50
2022-12-15T05:03:58.643Z,11.93
2022-12-15T05:06:39.070Z,12.17
2022-12-15T05:09:18.926Z,11.70
2022-12-15T05:11:58.656Z,13.30
2022-12-15T05:14:38.423Z,11.97
2022-12-15T05:17:18.654Z,10.70
2022-12-15T05:19:58.788Z,10.53
2022-12-15T05:22:38.882Z,11.57
2022-12-15T05:25:18.640Z,11.73
2022-12-15T05:27:58.532Z,15.10
2022-12-15T05:30:38.743Z,17.63
2022-12-15T05:33:04.492Z,19.17
2022-12-15T05:35:25.993Z,17.63
2022-12-15T05:37:47.444Z,15.70
2022-12-15T05:40:09.802Z,12.83
2022-12-15T05:42:31.252Z,12.83
2022-12-15T05:44:52.758Z,12.10
2022-12-15T05:47:14.230Z,11.90
2022-12-15T05:49:35.789Z,10.00
2022-12-15T05:51:57.364Z,10.40
2022-12-15T05:54:19.766Z,10.13
2022-12-15T05:56:41.672Z,10.27
2022-12-15T05:59:04.270Z,10.57
2022-12-15T06:01:26.857Z,11.90
2022-12-15T06:03:48.434Z,14.37
2022-12-15T06:06:12.035Z,14.77
2022-12-15T06:08:35.997Z,16.73
2022-12-15T06:10:57.552Z,17.90
2022-12-15T06:13:19.114Z,12.47
2022-12-15T06:15:40.565Z,11.60
2022-12-15T06:18:02.064Z,11.37
2022-12-15T06:20:24.290Z,11.97
2022-12-15T06:22:49.883Z,11.90
2022-12-15T06:25:11.690Z,12.57
2022-12-15T06:27:36.208Z,12.13
2022-12-15T06:29:57.688Z,11.20
2022-12-15T06:32:21.277Z,12.23
2022-12-15T06:34:42.814Z,11.80
2022-12-15T06:37:04.554Z,13.37
2022-12-15T06:39:26.023Z,15.30
2022-12-15T06:41:47.568Z,13.83
2022-12-15T06:44:13.231Z,14.23
2022-12-15T06:46:35.185Z,12.27
2022-12-15T06:48:57.537Z,12.67
2022-12-15T06:51:19.469Z,10.57
2022-12-15T06:53:42.674Z,12.17
2022-12-15T06:56:07.376Z,11.37
2022-12-15T06:58:28.891Z,12.67
2022-12-15T07:00:50.354Z,12.37
2022-12-15T07:03:17.268Z,12.23
2022-12-15T07:05:38.827Z,12.27
2022-12-15T07:08:00.302Z,12.73
2022-12-15T07:10:21.724Z,12.80
2022-12-15T07:12:43.188Z,14.30
2022-12-15T07:15:05.300Z,14.30
2022-12-15T07:17:26.943Z,11.20
2022-12-15T07:19:48.364Z,10.90
2022-12-15T07:22:09.813Z,10.77
2022-12-15T07:24:31.324Z,11.43
2022-12-15T07:26:52.775Z,13.43
2022-12-15T07:29:19.559Z,14.43
2022-12-15T07:31:44.472Z,14.40
2022-12-15T07:34:05.999Z,14.63
2022-12-15T07:36:30.319Z,13.30
2022-12-15T07:38:52.102Z,14.17
2022-12-15T07:41:13.701Z,13.50
2022-12-15T07:43:36.246Z,13.27
2022-12-15T07:45:58.391Z,12.83
2022-12-15T07:48:20.591Z,14.23
2022-12-15T07:50:42.017Z,14.60
2022-12-15T07:53:03.485Z,12.73
2022-12-15T07:55:50.050Z,12.87
2022-12-15T07:58:06.991Z,13.73
2022-12-15T08:00:28.890Z,14.00
2022-12-15T08:02:50.545Z,13.73
2022-12-15T08:05:12.190Z,14.83
2022-12-15T08:07:33.710Z,14.37
2022-12-15T08:09:55.176Z,13.43
2022-12-15T08:12:17.143Z,12.97
2022-12-15T08:14:38.570Z,12.33
2022-12-15T08:17:00.190Z,13.20
2022-12-15T08:19:21.719Z,13.73
2022-12-15T08:21:45.499Z,14.17
2022-12-15T08:24:08.328Z,14.60
2022-12-15T08:26:31.135Z,16.00
2022-12-15T08:28:53.019Z,17.73
2022-12-15T08:31:17.596Z,16.87
2022-12-15T08:33:39.482Z,17.73
2022-12-15T08:36:03.184Z,19.40
2022-12-15T08:38:24.648Z,18.47
2022-12-15T08:40:46.130Z,16.20
2022-12-15T08:43:07.601Z,19.07
2022-12-15T08:45:29.090Z,16.03
2022-12-15T08:47:50.549Z,16.17
2022-12-15T08:50:12.041Z,15.40
2022-12-15T08:52:34.001Z,16.37
2022-12-15T08:54:55.523Z,15.43
2022-12-15T08:57:16.969Z,14.23
2022-12-15T08:59:38.490Z,13.53
2022-12-15T09:02:00.550Z,14.23
2022-12-15T09:04:22.116Z,14.37
2022-12-15T09:06:44.180Z,14.13
2022-12-15T09:09:12.105Z,14.37
2022-12-15T09:11:34.259Z,16.80
2022-12-15T09:13:56.102Z,14.90
2022-12-15T09:16:19.145Z,16.20
2022-12-15T09:18:46.731Z,18.00
2022-12-15T09:21:08.359Z,20.63
2022-12-15T09:23:30.383Z,24.10
2022-12-15T09:25:59.696Z,23.00
2022-12-15T09:28:21.199Z,25.67
2022-12-15T09:30:42.847Z,21.87
2022-12-15T09:33:04.511Z,20.93
2022-12-15T09:35:28.967Z,18.83
2022-12-15T09:37:52.048Z,18.10
2022-12-15T09:40:13.935Z,18.23
2022-12-15T09:42:35.509Z,17.83
2022-12-15T09:45:03.115Z,19.40
2022-12-15T09:47:35.018Z,19.27
2022-12-15T09:49:58.369Z,20.10
2022-12-15T09:52:25.679Z,18.17
2022-12-15T09:54:47.394Z,17.97
2022-12-15T09:57:27.129Z,18.67
2022-12-15T10:00:08.205Z,19.20
2022-12-15T10:02:41.779Z,21.47
2022-12-15T10:05:50.147Z,19.80
2022-12-15T10:08:13.652Z,17.87
2022-12-15T10:10:43.536Z,19.47
2022-12-15T10:13:15.477Z,17.53
2022-12-15T10:15:53.243Z,17.50
2022-12-15T10:18:17.669Z,16.23
2022-12-15T10:20:39.446Z,20.27
2022-12-15T10:23:12.356Z,16.40
2022-12-15T10:25:33.832Z,14.90
2022-12-15T10:28:13.739Z,14.40
2022-12-15T10:30:39.471Z,16.63
2022-12-15T10:33:19.257Z,17.83
2022-12-15T10:35:43.928Z,19.80
2022-12-15T10:38:24.207Z,16.87
2022-12-15T10:41:07.592Z,17.23
2022-12-15T10:43:35.692Z,13.73
2022-12-15T10:46:02.036Z,13.03
2022-12-15T10:48:23.537Z,15.87
2022-12-15T10:50:45.014Z,24.47
2022-12-15T10:53:09.503Z,14.47
2022-12-15T10:55:43.841Z,14.50
2022-12-15T10:58:20.954Z,18.33
2022-12-15T11:00:42.451Z,13.67
2022-12-15T11:03:21.834Z,14.30
2022-12-15T11:05:52.145Z,14.20
2022-12-15T11:08:16.341Z,14.50
2022-12-15T11:11:16.267Z,17.03
2022-12-15T11:13:38.420Z,20.23
2022-12-15T11:16:11.003Z,18.80
2022-12-15T11:18:38.706Z,18.20
2022-12-15T11:21:21.573Z,18.20
2022-12-15T11:24:12.116Z,17.17
2022-12-15T11:26:51.021Z,17.57
2022-12-15T11:29:34.528Z,16.57
2022-12-15T11:32:01.435Z,17.03
2022-12-15T11:34:37.711Z,18.07
2022-12-15T11:37:20.321Z,15.83
2022-12-15T11:39:56.941Z,15.57
2022-12-15T11:42:38.780Z,16.70
2022-12-15T11:45:24.613Z,16.67
2022-12-15T11:47:55.200Z,17.73
2022-12-15T11:50:28.661Z,17.80
2022-12-15T11:52:54.877Z,15.50
2022-12-15T11:55:47.044Z,14.73
2022-12-15T11:58:42.962Z,16.27
2022-12-15T12:01:16.250Z,13.63
2022-12-15T12:03:55.715Z,14.13
2022-12-15T12:06:25.068Z,13.97
2022-12-15T12:09:15.786Z,13.07
2022-12-15T12:11:56.072Z,12.10
2022-12-15T12:14:38.998Z,13.03
2022-12-15T12:17:10.359Z,12.87
2022-12-15T12:19:40.390Z,13.27
2022-12-15T12:22:27.029Z,14.07
2022-12-15T12:24:56.630Z,13.10
2022-12-15T12:27:29.750Z,12.43
2022-12-15T12:29:55.438Z,11.93
2022-12-15T12:32:40.428Z,12.33
2022-12-15T12:35:31.249Z,12.80
2022-12-15T12:38:03.316Z,11.30
2022-12-15T12:40:36.999Z,11.17
2022-12-15T12:42:59.921Z,11.20
2022-12-15T12:45:27.669Z,11.80
2022-12-15T12:47:51.514Z,11.33
2022-12-15T12:50:16.286Z,11.67
2022-12-15T12:52:38.120Z,11.57
2022-12-15T12:55:03.227Z,10.73
2022-12-15T12:57:35.245Z,9.43
2022-12-15T13:00:00.824Z,12.00
2022-12-15T13:02:24.636Z,10.30
2022-12-15T13:05:04.425Z,11.60
2022-12-15T13:07:32.066Z,13.97
2022-12-15T13:10:08.954Z,13.97
2022-12-15T13:15:29.982Z,13.77
2022-12-15T13:17:55.727Z,12.37
2022-12-15T13:20:29.647Z,12.00
2022-12-15T13:22:51.872Z,12.50
2022-12-15T13:25:37.854Z,11.60
2022-12-15T13:28:02.338Z,12.20
2022-12-15T13:30:24.046Z,12.43
2022-12-15T13:32:47.327Z,11.77
2022-12-15T13:35:11.961Z,11.87
2022-12-15T13:37:53.757Z,11.83
2022-12-15T13:40:26.094Z,11.30
2022-12-15T13:42:56.271Z,11.37
2022-12-15T13:45:33.080Z,13.27
2022-12-15T13:47:56.193Z,13.73
2022-12-15T13:50:31.044Z,15.30
2022-12-15T13:55:46.207Z,15.63
2022-12-15T13:58:16.866Z,15.23
2022-12-15T14:00:39.588Z,15.93
2022-12-15T14:03:11.774Z,15.20
2022-12-15T14:05:33.449Z,13.13
2022-12-15T14:07:56.156Z,12.30
2022-12-15T14:10:21.961Z,11.90
2022-12-15T14:12:45.107Z,11.47
2022-12-15T14:15:14.509Z,12.77
2022-12-15T14:17:36.608Z,12.87
2022-12-15T14:19:58.026Z,12.03
2022-12-15T14:22:28.635Z,11.37
2022-12-15T14:24:52.002Z,10.83
2022-12-15T14:27:31.621Z,9.83
2022-12-15T14:30:35.525Z,9.50
2022-12-15T14:33:10.901Z,10.00
2022-12-15T14:35:44.114Z,10.40
2022-12-15T14:38:24.191Z,9.47
2022-12-15T14:40:49.274Z,9.57
2022-12-15T14:43:19.171Z,10.47
2022-12-15T14:45:40.853Z,10.37
2022-12-15T14:50:51.255Z,9.87
2022-12-15T14:53:17.058Z,10.50
2022-12-15T14:55:39.511Z,11.53
2022-12-15T14:58:02.458Z,10.67
2022-12-15T15:00:31.641Z,10.17
2022-12-15T15:03:18.336Z,10.67
2022-12-15T15:06:11.020Z,10.33
2022-12-15T15:08:43.063Z,10.17
2022-12-15T15:11:20.273Z,10.20
2022-12-15T15:13:41.926Z,9.93
2022-12-15T15:16:06.973Z,10.03
2022-12-15T15:18:29.840Z,9.87
2022-12-15T15:21:03.351Z,10.10
2022-12-15T15:23:24.807Z,9.97
2022-12-15T15:25:51.984Z,10.00
2022-12-15T15:28:19.222Z,11.10
2022-12-15T15:30:43.940Z,12.00
2022-12-15T15:33:08.828Z,10.80
2022-12-15T15:35:33.324Z,13.73
2022-12-15T15:38:02.261Z,18.37
2022-12-15T15:40:23.955Z,21.07
2022-12-15T15:42:45.811Z,19.47
2022-12-15T15:45:14.720Z,19.37
2022-12-15T15:47:36.829Z,18.40
2022-12-15T15:49:59.907Z,16.57
2022-12-15T15:52:22.319Z,15.90
2022-12-15T15:54:44.693Z,16.50
2022-12-15T15:57:06.158Z,15.50
2022-12-15T15:59:28.981Z,13.70
2022-12-15T16:01:55.885Z,13.77
2022-12-15T16:04:17.585Z,12.73
2022-12-15T16:06:45.120Z,14.00
2022-12-15T16:09:12.739Z,14.50
2022-12-15T16:11:35.242Z,14.33
2022-12-15T16:13:56.912Z,16.43
2022-12-15T16:16:21.529Z,18.50
2022-12-15T16:18:43.047Z,17.63
2022-12-15T16:21:04.565Z,15.90
2022-12-15T16:23:29.119Z,16.93
2022-12-15T16:25:56.729Z,20.90
2022-12-15T16:28:21.502Z,18.37
2022-12-15T16:30:43.696Z,16.40
2022-12-15T16:33:05.186Z,14.27
2022-12-15T16:35:26.785Z,14.20
2022-12-15T16:37:49.230Z,15.03
2022-12-15T16:40:18.098Z,14.30
2022-12-15T16:42:39.616Z,14.87
2022-12-15T16:45:02.232Z,13.97
2022-12-15T16:47:23.705Z,21.70
2022-12-15T16:49:45.233Z,18.97
2022-12-15T16:52:18.002Z,16.40
2022-12-15T16:54:40.132Z,15.27
2022-12-15T16:57:02.108Z,15.17
2022-12-15T16:59:34.892Z,14.60
2022-12-15T17:01:57.722Z,13.47
2022-12-15T17:04:19.547Z,13.67
2022-12-15T17:06:40.998Z,13.73
2022-12-15T17:09:02.735Z,13.13
2022-12-15T17:11:26.613Z,12.27
2022-12-15T17:13:51.311Z,12.17
2022-12-15T17:16:16.015Z,13.07
2022-12-15T17:18:37.539Z,11.90
2022-12-15T17:21:15.818Z,13.27
2022-12-15T17:23:37.361Z,12.07
2022-12-15T17:26:22.660Z,11.43
2022-12-15T17:28:40.741Z,11.90
2022-12-15T17:31:02.797Z,12.37
2022-12-15T17:33:27.434Z,12.43
2022-12-15T17:35:51.758Z,11.60
2022-12-15T17:38:16.635Z,12.77
2022-12-15T17:40:38.107Z,12.30
2022-12-15T17:42:59.577Z,11.70
2022-12-15T17:45:23.781Z,12.13
2022-12-15T17:47:45.692Z,11.33
2022-12-15T17:50:07.753Z,12.03
2022-12-15T17:52:34.416Z,11.30
2022-12-15T17:54:56.692Z,11.87
2022-12-15T17:57:18.387Z,11.13
2022-12-15T17:59:39.888Z,11.40
2022-12-15T18:02:42.688Z,13.70
2022-12-15T18:05:04.775Z,14.40
2022-12-15T18:07:26.284Z,14.50
2022-12-15T18:09:49.582Z,15.27
2022-12-15T18:12:29.696Z,16.33
2022-12-15T18:14:52.009Z,20.13
2022-12-15T18:17:14.252Z,22.57
2022-12-15T18:19:35.708Z,19.27
2022-12-15T18:21:57.165Z,20.47
2022-12-15T18:24:21.535Z,18.73
2022-12-15T18:26:43.152Z,18.07
2022-12-15T18:29:17.587Z,17.33
2022-12-15T18:31:39.187Z,17.90
2022-12-15T18:34:04.725Z,17.63
2022-12-15T18:36:26.637Z,17.87
2022-12-15T18:38:48.874Z,20.37
2022-12-15T18:41:15.169Z,17.03
2022-12-15T18:43:36.742Z,17.73
2022-12-15T18:45:58.904Z,17.00
2022-12-15T18:48:24.801Z,22.77
2022-12-15T18:50:48.461Z,20.33
2022-12-15T18:53:17.607Z,20.27
2022-12-15T18:55:39.106Z,31.80
2022-12-15T18:58:01.772Z,20.40
2022-12-15T19:00:30.267Z,18.97
2022-12-15T19:02:53.063Z,16.00
2022-12-15T19:05:28.412Z,17.23
2022-12-15T19:07:49.900Z,16.27
2022-12-15T19:10:14.543Z,18.70
2022-12-15T19:12:36.037Z,20.73
2022-12-15T19:14:57.499Z,17.03
2022-12-15T19:17:41.979Z,17.33
2022-12-15T19:20:33.428Z,16.93
2022-12-15T19:22:54.943Z,15.57
2022-12-15T19:25:26.692Z,16.93
2022-12-15T19:27:48.268Z,14.93
2022-12-15T19:30:18.359Z,18.23
2022-12-15T19:32:39.851Z,15.90
2022-12-15T19:35:01.346Z,13.33
2022-12-15T19:37:29.473Z,13.53
2022-12-15T19:39:52.028Z,14.50
2022-12-15T19:42:23.957Z,13.40
2022-12-15T19:44:45.539Z,12.77
2022-12-15T19:47:13.631Z,13.30
2022-12-15T19:49:35.192Z,13.93
2022-12-15T19:51:56.682Z,17.03
2022-12-15T19:54:21.297Z,14.67
2022-12-15T19:56:42.829Z,12.97
2022-12-15T19:59:04.335Z,13.93
2022-12-15T20:01:26.018Z,15.97
2022-12-15T20:03:50.331Z,15.23
2022-12-15T20:06:25.663Z,16.87
2022-12-15T20:08:50.203Z,17.07
2022-12-15T20:11:21.047Z,15.57
2022-12-15T20:13:42.538Z,25.87
2022-12-15T20:16:04.160Z,23.17
2022-12-15T20:18:25.639Z,27.27
2022-12-15T20:20:48.741Z,26.30
2022-12-15T20:23:19.884Z,26.50
2022-12-15T20:25:42.559Z,22.70
2022-12-15T20:28:06.848Z,19.93
2022-12-15T20:30:32.691Z,18.17
2022-12-15T20:32:54.576Z,20.77
2022-12-15T20:35:17.643Z,20.13
2022-12-15T20:37:39.177Z,18.90
2022-12-15T20:40:00.677Z,18.77
2022-12-15T20:42:22.686Z,18.80
2022-12-15T20:44:44.264Z,18.10
2022-12-15T20:47:06.070Z,17.67
2022-12-15T20:49:28.260Z,18.40
2022-12-15T20:51:50.689Z,18.73
2022-12-15T20:54:17.724Z,16.27
2022-12-15T20:56:39.265Z,16.70
2022-12-15T20:59:00.762Z,16.43
2022-12-15T21:01:28.300Z,16.73
2022-12-15T21:03:53.403Z,17.73
2022-12-15T21:06:14.957Z,15.57
2022-12-15T21:08:36.485Z,15.53
2022-12-15T21:11:05.719Z,15.10
2022-12-15T21:13:30.977Z,15.30
2022-12-15T21:15:53.630Z,16.33
2022-12-15T21:20:58.884Z,16.60
2022-12-15T21:23:24.870Z,16.20
2022-12-15T21:25:47.375Z,15.60
2022-12-15T21:28:11.890Z,15.30
2022-12-15T21:30:35.050Z,15.90
2022-12-15T21:32:56.524Z,15.40
2022-12-15T21:35:19.444Z,15.27
2022-12-15T21:37:42.734Z,15.60
2022-12-15T21:40:05.248Z,16.47
2022-12-15T21:42:27.338Z,15.97
2022-12-15T21:44:48.856Z,16.63
2022-12-15T21:47:24.651Z,16.23
2022-12-15T21:49:46.114Z,18.83
2022-12-15T21:52:09.470Z,17.90
2022-12-15T21:54:33.043Z,20.03
2022-12-15T21:56:54.529Z,20.43
2022-12-15T21:59:22.517Z,18.27
2022-12-15T22:01:44.336Z,15.63
2022-12-15T22:04:19.148Z,16.40
2022-12-15T22:06:45.870Z,15.37
2022-12-15T22:09:11.157Z,14.13
2022-12-15T22:11:32.635Z,15.97
2022-12-15T22:13:56.707Z,16.70
2022-12-15T22:16:18.359Z,15.73
2022-12-15T22:18:39.885Z,18.33
2022-12-15T22:21:01.366Z,16.57
2022-12-15T22:23:22.848Z,17.53
2022-12-15T22:25:45.184Z,17.20
2022-12-15T22:28:17.773Z,16.80
2022-12-15T22:30:39.294Z,16.13
2022-12-15T22:33:02.433Z,17.37
2022-12-15T22:35:26.508Z,17.87
2022-12-15T22:37:49.825Z,20.23
2022-12-15T22:40:13.416Z,21.07
2022-12-15T22:42:35.850Z,20.20
2022-12-15T22:44:57.353Z,19.60
2022-12-15T22:47:18.909Z,17.97
2022-12-15T22:49:41.181Z,17.70
2022-12-15T22:52:03.404Z,18.53
2022-12-15T22:54:27.253Z,17.70
2022-12-15T22:57:19.965Z,16.97
2022-12-15T22:59:47.097Z,16.57
2022-12-15T23:02:09.628Z,17.10
2022-12-15T23:04:31.959Z,18.23
2022-12-15T23:06:53.503Z,18.80
2022-12-15T23:09:16.445Z,19.63
2022-12-15T23:11:38.150Z,17.43
2022-12-15T23:13:59.666Z,15.97
2022-12-15T23:16:21.738Z,18.23
2022-12-15T23:18:43.502Z,16.77
2022-12-15T23:21:05.256Z,17.00
2022-12-15T23:23:28.057Z,16.03
2022-12-15T23:25:49.538Z,15.57
2022-12-15T23:28:11.031Z,17.13
2022-12-15T23:30:32.615Z,16.40
2022-12-15T23:32:57.044Z,16.87
2022-12-15T23:35:18.832Z,16.30
2022-12-15T23:37:40.720Z,16.70
2022-12-15T23:40:02.225Z,15.97
2022-12-15T23:42:23.715Z,16.47
2022-12-15T23:44:45.238Z,18.13
2022-12-15T23:47:07.926Z,16.00
2022-12-15T23:49:30.109Z,15.47
2022-12-15T23:51:51.560Z,15.93
2022-12-15T23:54:13.979Z,16.10
2022-12-15T23:56:35.562Z,17.80
2022-12-15T23:58:58.816Z,18.17
